W K Kellogg Airport
KBTL : now visible

Airfield :











YOU CAN JOIN US ON...

 
LOGIN :

Register | Disclaimer

   EN    FR    IT 

 









Legend :    VFR   Marginal VFR   IFR   Intensive IFR   Very Intensive IFR
Visi :
Ceiling :
>= 8 km
>= 3000ft
5 to 8 km
1000 to 3000 ft
1500m to 5 km
500 to 1000 ft
800 to 1500m
200 to 500 ft
< 800m
< 200 ft
Symbols :   Thunderstorms  Fog  Heavy snow  Heavy precipitations  Wind > 20 kt






- Airport Elevation : 952 ft


KBTL - W K Kellogg

CURRENT METAR :
  • 180453Z AUTO 17005KT 10SM CLR 26/21 A3003 RMK AO2 SLP160 T02610206 403390200

EXPIRED METARs :
  • 180353Z AUTO 18007KT 10SM CLR 27/21 A3001 RMK AO2 SLP153 T02670211
  • 180253Z 15006KT 10SM CLR 27/21 A2999 RMK AO2 SLP147 T02720211 53005
  • 180153Z 15004KT 10SM CLR 29/21 A2998 RMK AO2 SLP143 T02890211
  • 180053Z 00000KT 10SM CLR 31/21 A2997 RMK AO2 SLP141 T03060211

TAF KBTL
Valid from the 18 at 00:00 until the 19 at 00:00 UTC


172332Z 1800/1824 24008KT P6SM SKC
FM180900 20007KT P6SM SCT040
FM181200 21012KT P6SM VCTS BKN040CB
KZAU FIR / North America



MET'MAP, your aeronautical weather chart ! - Copyright ORBIFLY December 2007 - Disclaimer

ORBIFLY MET'MAP TEAM :

Programming & Development : Alexandra Zaïnal
Original concept : Baudouin d'Aumeries
Technical & hardware support : Manuel Goepfert
Assistance : Marc-Olivier Méhu




SOURCES & CREDITS :

   NOAA       Earth
Advisory